createdAt,value
2023-02-22T00:00:52.991Z,91.23
2023-02-22T00:03:56.250Z,91.27
2023-02-22T00:07:01.295Z,91.03
2023-02-22T00:10:04.847Z,91.35
2023-02-22T00:13:09.735Z,91.27
2023-02-22T00:16:16.342Z,91.28
2023-02-22T00:19:19.311Z,91.22
2023-02-22T00:22:23.366Z,91.19
2023-02-22T00:25:26.572Z,91.05
2023-02-22T00:28:30.722Z,91.15
2023-02-22T00:31:39.263Z,91.23
2023-02-22T00:34:43.650Z,91.21
2023-02-22T00:37:49.682Z,91.10
2023-02-22T00:40:52.697Z,91.67
2023-02-22T00:43:55.367Z,91.46
2023-02-22T00:46:58.046Z,91.77
2023-02-22T00:50:02.097Z,91.58
2023-02-22T00:53:07.322Z,91.48
2023-02-22T00:56:10.050Z,91.44
2023-02-22T00:59:12.747Z,91.31
2023-02-22T01:02:15.601Z,91.19
2023-02-22T01:05:21.239Z,91.27
2023-02-22T01:08:25.851Z,91.03
2023-02-22T01:11:28.534Z,90.84
2023-02-22T01:14:31.293Z,91.06
2023-02-22T01:17:33.986Z,91.37
2023-02-22T01:20:37.006Z,91.16
2023-02-22T01:23:41.144Z,91.41
2023-02-22T01:26:45.452Z,91.74
2023-02-22T01:29:50.245Z,91.72
2023-02-22T01:32:53.365Z,92.10
2023-02-22T01:35:56.081Z,92.22
2023-02-22T01:39:00.105Z,92.05
2023-02-22T01:42:03.738Z,91.86
2023-02-22T01:45:43.111Z,91.77
2023-02-22T01:48:49.171Z,92.13
2023-02-22T01:51:55.969Z,92.13
2023-02-22T01:55:02.013Z,92.18
2023-02-22T01:58:06.353Z,92.22
2023-02-22T02:01:10.718Z,92.05
2023-02-22T02:04:17.226Z,92.20
2023-02-22T02:07:22.915Z,92.04
2023-02-22T02:10:26.956Z,92.28
2023-02-22T02:13:30.047Z,92.33
2023-02-22T02:16:42.713Z,92.47
2023-02-22T02:19:54.320Z,92.46
2023-02-22T02:23:06.305Z,92.53
2023-02-22T02:26:30.164Z,92.13
2023-02-22T02:30:20.625Z,92.21
2023-02-22T02:33:32.295Z,91.83
2023-02-22T02:36:57.840Z,92.22
2023-02-22T02:40:11.405Z,92.17
2023-02-22T02:43:22.653Z,92.51
2023-02-22T02:46:30.829Z,92.41
2023-02-22T02:49:38.718Z,92.79
2023-02-22T02:52:42.952Z,92.76
2023-02-22T02:55:45.615Z,92.88
2023-02-22T02:58:52.824Z,92.87
2023-02-22T03:02:17.882Z,93.29
2023-02-22T03:05:40.970Z,93.73
2023-02-22T03:08:46.641Z,94.04
2023-02-22T03:12:02.105Z,94.83
2023-02-22T03:15:15.045Z,95.28
2023-02-22T03:18:25.854Z,95.88
2023-02-22T03:21:35.515Z,96.38
2023-02-22T03:24:44.900Z,96.94
2023-02-22T03:27:50.800Z,97.66
2023-02-22T03:30:58.452Z,97.93
2023-02-22T03:34:07.368Z,98.93
2023-02-22T03:37:17.790Z,99.75
2023-02-22T03:40:26.867Z,100.00
2023-02-22T03:43:33.877Z,100.00
2023-02-22T03:46:40.221Z,100.00
2023-02-22T03:49:50.716Z,100.00
2023-02-22T03:52:54.903Z,100.00
2023-02-22T03:56:00.679Z,100.00
2023-02-22T03:59:05.164Z,100.00
2023-02-22T04:02:08.007Z,100.00
2023-02-22T04:05:10.746Z,100.00
2023-02-22T04:08:15.007Z,100.00
2023-02-22T04:11:18.062Z,100.00
2023-02-22T04:14:23.184Z,100.00
2023-02-22T04:17:26.554Z,100.00
2023-02-22T04:20:29.281Z,100.00
2023-02-22T04:23:33.280Z,100.00
2023-02-22T04:26:35.991Z,100.00
2023-02-22T04:29:38.690Z,100.00
2023-02-22T04:32:41.354Z,100.00
2023-02-22T04:35:44.132Z,100.00
2023-02-22T04:38:48.444Z,100.00
2023-02-22T04:41:51.147Z,100.00
2023-02-22T04:44:54.688Z,100.00
2023-02-22T04:47:57.394Z,100.00
2023-02-22T04:51:00.131Z,100.00
2023-02-22T04:54:05.491Z,100.00
2023-02-22T04:57:08.174Z,100.00
2023-02-22T05:00:11.760Z,100.00
2023-02-22T05:03:14.443Z,100.00
2023-02-22T05:06:18.726Z,100.00
2023-02-22T05:09:22.846Z,100.00
2023-02-22T05:12:28.399Z,100.00
2023-02-22T05:15:31.024Z,100.00
2023-02-22T05:18:33.687Z,100.00
2023-02-22T05:21:36.331Z,100.00
2023-02-22T05:24:40.449Z,100.00
2023-02-22T05:27:43.140Z,100.00
2023-02-22T05:30:46.036Z,100.00
2023-02-22T05:33:49.272Z,100.00
2023-02-22T05:36:52.285Z,100.00
2023-02-22T05:39:56.736Z,100.00
2023-02-22T05:43:00.782Z,100.00
2023-02-22T05:46:03.804Z,100.00
2023-02-22T05:49:06.666Z,100.00
2023-02-22T05:52:09.320Z,100.00
2023-02-22T05:55:15.858Z,100.00
2023-02-22T05:58:18.903Z,100.00
2023-02-22T06:01:22.622Z,100.00
2023-02-22T06:04:26.037Z,100.00
2023-02-22T06:07:28.703Z,100.00
2023-02-22T06:10:32.958Z,100.00
2023-02-22T06:13:35.682Z,100.00
2023-02-22T06:16:38.375Z,100.00
2023-02-22T06:19:41.374Z,100.00
2023-02-22T06:22:45.658Z,100.00
2023-02-22T06:25:49.830Z,100.00
2023-02-22T06:28:52.522Z,100.00
2023-02-22T06:31:55.615Z,100.00
2023-02-22T06:34:59.076Z,100.00
2023-02-22T06:38:01.801Z,100.00
2023-02-22T06:41:06.135Z,100.00
2023-02-22T06:44:10.727Z,100.00
2023-02-22T06:47:13.440Z,100.00
2023-02-22T06:50:23.455Z,100.00
2023-02-22T06:53:26.227Z,100.00
2023-02-22T06:56:30.264Z,100.00
2023-02-22T06:59:32.884Z,100.00
2023-02-22T07:02:35.763Z,100.00
2023-02-22T07:05:38.633Z,100.00
2023-02-22T07:08:41.508Z,100.00
2023-02-22T07:11:45.702Z,100.00
2023-02-22T07:14:48.427Z,100.00
2023-02-22T07:17:51.271Z,100.00
2023-02-22T07:20:54.292Z,100.00
2023-02-22T07:23:58.936Z,100.00
2023-02-22T07:27:03.422Z,100.00
2023-02-22T07:30:07.726Z,100.00
2023-02-22T07:33:13.180Z,100.00
2023-02-22T07:36:17.905Z,100.00
2023-02-22T07:39:20.708Z,100.00
2023-02-22T07:42:25.193Z,100.00
2023-02-22T07:45:29.975Z,100.00
2023-02-22T07:48:33.251Z,100.00
2023-02-22T07:51:35.922Z,100.00
2023-02-22T07:54:38.672Z,100.00
2023-02-22T07:57:42.704Z,100.00
2023-02-22T08:00:47.350Z,100.00
2023-02-22T08:03:50.254Z,100.00
2023-02-22T08:06:52.968Z,100.00
2023-02-22T08:09:55.728Z,100.00
2023-02-22T08:13:00.049Z,99.92
2023-02-22T08:16:04.633Z,100.00
2023-02-22T08:19:07.332Z,100.00
2023-02-22T08:22:10.008Z,99.82
2023-02-22T08:25:13.271Z,99.80
2023-02-22T08:28:19.997Z,99.38
2023-02-22T08:31:22.776Z,98.58
2023-02-22T08:34:25.835Z,97.69
2023-02-22T08:37:28.709Z,98.33
2023-02-22T08:40:34.586Z,97.52
2023-02-22T08:43:39.218Z,97.12
2023-02-22T08:46:42.050Z,97.17
2023-02-22T08:49:44.827Z,97.01
2023-02-22T08:52:47.714Z,96.58
2023-02-22T08:55:50.994Z,95.50
2023-02-22T08:58:55.982Z,94.05
2023-02-22T09:01:59.001Z,94.32
2023-02-22T09:05:02.036Z,93.32
2023-02-22T09:08:05.626Z,93.34
2023-02-22T09:11:08.519Z,93.97
2023-02-22T09:14:15.205Z,91.69
2023-02-22T09:17:18.169Z,93.03
2023-02-22T09:20:23.503Z,92.32
2023-02-22T09:23:27.350Z,93.14
2023-02-22T09:26:30.167Z,93.04
2023-02-22T09:29:34.291Z,91.67
2023-02-22T09:32:37.787Z,90.77
2023-02-22T09:35:42.758Z,91.06
2023-02-22T09:38:46.486Z,90.18
2023-02-22T09:41:56.095Z,89.42
2023-02-22T09:45:12.843Z,89.61
2023-02-22T09:48:22.027Z,89.35
2023-02-22T09:51:28.485Z,89.67
2023-02-22T09:54:36.556Z,91.30
2023-02-22T09:57:43.023Z,89.53
2023-02-22T10:00:51.548Z,90.69
2023-02-22T10:04:01.242Z,90.20
2023-02-22T10:07:11.150Z,89.21
2023-02-22T10:10:18.380Z,88.84
2023-02-22T10:13:29.905Z,90.01
2023-02-22T10:16:41.467Z,89.92
2023-02-22T10:19:57.650Z,89.35
2023-02-22T10:23:12.056Z,90.41
2023-02-22T10:26:18.152Z,91.32
2023-02-22T10:29:28.572Z,91.67
2023-02-22T10:32:43.380Z,90.54
2023-02-22T10:35:47.272Z,90.02
2023-02-22T10:38:55.746Z,89.66
2023-02-22T10:42:05.875Z,89.65
2023-02-22T10:45:22.499Z,89.34
2023-02-22T10:48:28.538Z,89.38
2023-02-22T10:51:31.937Z,89.84
2023-02-22T10:54:37.700Z,89.70
2023-02-22T10:57:42.304Z,90.03
2023-02-22T11:00:46.657Z,90.02
2023-02-22T11:04:04.071Z,90.14
2023-02-22T11:07:12.310Z,89.90
2023-02-22T11:10:38.649Z,89.19
2023-02-22T11:13:42.274Z,89.03
2023-02-22T11:16:51.482Z,89.59
2023-02-22T11:19:56.052Z,89.31
2023-02-22T11:23:02.201Z,88.44
2023-02-22T11:26:10.027Z,89.07
2023-02-22T11:29:19.705Z,88.87
2023-02-22T11:32:24.493Z,88.34
2023-02-22T11:35:39.012Z,87.43
2023-02-22T11:38:55.198Z,88.09
2023-02-22T11:41:57.940Z,87.34
2023-02-22T11:45:11.215Z,87.03
2023-02-22T11:48:23.241Z,86.06
2023-02-22T11:51:44.977Z,85.16
2023-02-22T11:55:32.616Z,84.39
2023-02-22T11:58:46.552Z,84.61
2023-02-22T12:01:54.943Z,84.38
2023-02-22T12:05:27.334Z,84.51
2023-02-22T12:08:43.592Z,83.70
2023-02-22T12:11:57.299Z,83.62
2023-02-22T12:15:07.808Z,83.35
2023-02-22T12:18:20.733Z,83.43
2023-02-22T12:21:26.310Z,83.14
2023-02-22T12:24:37.351Z,83.00
2023-02-22T12:27:45.036Z,82.81
2023-02-22T12:30:53.832Z,82.20
2023-02-22T12:34:07.721Z,82.92
2023-02-22T12:37:17.791Z,83.03
2023-02-22T12:40:27.960Z,81.87
2023-02-22T12:43:34.740Z,81.40
2023-02-22T12:46:41.905Z,80.06
2023-02-22T12:49:49.612Z,81.78
2023-02-22T12:52:57.811Z,80.75
2023-02-22T12:56:15.946Z,80.80
2023-02-22T12:59:25.951Z,80.66
2023-02-22T13:02:32.432Z,80.23
2023-02-22T13:05:39.516Z,79.37
2023-02-22T13:08:55.420Z,79.66
2023-02-22T13:12:08.099Z,79.96
2023-02-22T13:15:19.909Z,79.30
2023-02-22T13:18:32.534Z,78.82
2023-02-22T13:21:45.059Z,79.28
2023-02-22T13:25:02.215Z,78.36
2023-02-22T13:28:23.529Z,79.17
2023-02-22T13:31:45.752Z,78.70
2023-02-22T13:35:20.357Z,78.19
2023-02-22T13:38:50.928Z,77.41
2023-02-22T13:42:05.981Z,77.40
2023-02-22T13:45:46.422Z,76.74
2023-02-22T13:49:21.449Z,76.75
2023-02-22T13:52:27.545Z,76.88
2023-02-22T13:55:34.571Z,76.96
2023-02-22T13:58:49.024Z,77.06
2023-02-22T14:01:54.940Z,77.00
2023-02-22T14:04:57.876Z,77.12
2023-02-22T14:08:00.585Z,76.54
2023-02-22T14:11:05.886Z,76.62
2023-02-22T14:14:17.787Z,76.70
2023-02-22T14:17:30.105Z,76.50
2023-02-22T14:20:36.243Z,76.69
2023-02-22T14:23:40.815Z,76.88
2023-02-22T14:26:56.336Z,76.75
2023-02-22T14:30:00.611Z,75.83
2023-02-22T14:33:25.273Z,75.43
2023-02-22T14:36:34.301Z,76.26
2023-02-22T14:39:41.517Z,75.31
2023-02-22T14:42:49.995Z,75.89
2023-02-22T14:45:55.921Z,76.58
2023-02-22T14:49:04.224Z,76.81
2023-02-22T14:52:19.058Z,77.39
2023-02-22T14:55:24.821Z,76.58
2023-02-22T14:58:35.394Z,76.57
2023-02-22T15:01:50.906Z,76.99
2023-02-22T15:05:00.404Z,76.93
2023-02-22T15:08:07.611Z,77.31
2023-02-22T15:11:22.072Z,77.30
2023-02-22T15:14:27.138Z,77.46
2023-02-22T15:17:29.893Z,76.93
2023-02-22T15:20:36.209Z,77.08
2023-02-22T15:23:45.150Z,76.97
2023-02-22T15:27:00.616Z,77.02
2023-02-22T15:30:07.578Z,77.71
2023-02-22T15:33:16.377Z,77.75
2023-02-22T15:36:23.049Z,78.12
2023-02-22T15:39:29.508Z,78.13
2023-02-22T15:42:32.231Z,77.90
2023-02-22T15:45:35.322Z,78.42
2023-02-22T15:48:41.301Z,77.81
2023-02-22T15:51:49.075Z,78.30
2023-02-22T15:54:53.519Z,78.97
2023-02-22T15:57:59.088Z,78.93
2023-02-22T16:01:03.719Z,79.17
2023-02-22T16:04:06.935Z,79.74
2023-02-22T16:07:17.752Z,80.05
2023-02-22T16:10:24.501Z,79.96
2023-02-22T16:13:36.093Z,80.63
2023-02-22T16:16:41.591Z,81.39
2023-02-22T16:19:45.265Z,81.82
2023-02-22T16:22:51.036Z,81.75
2023-02-22T16:26:07.055Z,81.82
2023-02-22T16:29:11.095Z,82.33
2023-02-22T16:32:15.518Z,82.64
2023-02-22T16:35:19.015Z,82.96
2023-02-22T16:38:23.200Z,83.03
2023-02-22T16:41:26.151Z,83.42
2023-02-22T16:44:29.743Z,83.26
2023-02-22T16:47:32.430Z,84.00
2023-02-22T16:50:35.129Z,84.11
2023-02-22T16:53:39.315Z,84.42
2023-02-22T16:56:42.456Z,84.19
2023-02-22T16:59:47.757Z,84.37
2023-02-22T17:02:50.528Z,84.56
2023-02-22T17:05:53.835Z,84.96
2023-02-22T17:08:57.935Z,84.93
2023-02-22T17:12:00.991Z,85.25
2023-02-22T17:15:04.512Z,85.59
2023-02-22T17:18:16.336Z,85.44
2023-02-22T17:21:19.262Z,85.72
2023-02-22T17:24:29.178Z,85.78
2023-02-22T17:27:32.407Z,86.13
2023-02-22T17:30:36.323Z,85.96
2023-02-22T17:33:39.060Z,86.01
2023-02-22T17:36:42.072Z,86.17
2023-02-22T17:39:46.570Z,86.49
2023-02-22T17:42:54.587Z,86.62
2023-02-22T17:45:58.179Z,86.82
2023-02-22T17:49:02.139Z,86.87
2023-02-22T17:52:07.414Z,87.01
2023-02-22T17:55:13.122Z,87.49
2023-02-22T17:58:16.583Z,87.72
2023-02-22T18:01:27.344Z,88.00
2023-02-22T18:04:30.048Z,88.26
2023-02-22T18:07:32.809Z,88.68
2023-02-22T18:10:37.624Z,88.96
2023-02-22T18:13:40.574Z,89.27
2023-02-22T18:16:43.280Z,89.87
2023-02-22T18:19:46.065Z,89.77
2023-02-22T18:22:48.975Z,89.82
2023-02-22T18:26:09.071Z,89.86
2023-02-22T18:29:13.014Z,90.02
2023-02-22T18:32:15.844Z,90.06
2023-02-22T18:35:18.654Z,90.10
2023-02-22T18:38:24.229Z,90.32
2023-02-22T18:41:28.848Z,90.46
2023-02-22T18:44:32.386Z,90.28
2023-02-22T18:47:40.886Z,90.43
2023-02-22T18:50:43.558Z,90.26
2023-02-22T18:53:47.731Z,90.40
2023-02-22T18:56:51.896Z,90.64
2023-02-22T18:59:54.992Z,90.83
2023-02-22T19:02:58.308Z,90.88
2023-02-22T19:06:02.993Z,91.44
2023-02-22T19:09:08.678Z,91.94
2023-02-22T19:12:12.836Z,92.00
2023-02-22T19:15:15.944Z,92.29
2023-02-22T19:18:20.612Z,92.28
2023-02-22T19:21:24.170Z,92.32
2023-02-22T19:24:26.838Z,92.17
2023-02-22T19:27:31.370Z,91.95
2023-02-22T19:30:34.081Z,91.84
2023-02-22T19:33:37.034Z,92.08
2023-02-22T19:36:41.313Z,92.23
2023-02-22T19:39:44.232Z,92.23
2023-02-22T19:42:48.448Z,92.27
2023-02-22T19:45:51.216Z,92.41
2023-02-22T19:48:55.286Z,92.30
2023-02-22T19:51:58.314Z,91.96
2023-02-22T19:55:01.173Z,92.13
2023-02-22T19:58:05.258Z,92.38
2023-02-22T20:01:14.331Z,92.20
2023-02-22T20:04:21.319Z,92.06
2023-02-22T20:07:24.233Z,92.18
2023-02-22T20:10:27.078Z,92.11
2023-02-22T20:13:31.898Z,92.50
2023-02-22T20:16:35.654Z,92.22
2023-02-22T20:19:40.681Z,92.55
2023-02-22T20:22:44.514Z,92.67
2023-02-22T20:25:53.685Z,92.28
2023-02-22T20:28:58.417Z,92.50
2023-02-22T20:32:02.862Z,92.52
2023-02-22T20:35:07.114Z,92.42
2023-02-22T20:38:11.572Z,92.66
2023-02-22T20:41:16.974Z,92.48
2023-02-22T20:44:22.159Z,92.61
2023-02-22T20:47:25.004Z,92.37
2023-02-22T20:50:27.685Z,92.36
2023-02-22T20:53:30.394Z,92.42
2023-02-22T20:56:34.166Z,92.38
2023-02-22T20:59:38.206Z,92.45
2023-02-22T21:02:40.911Z,92.30
2023-02-22T21:05:44.401Z,92.23
2023-02-22T21:08:51.291Z,92.51
2023-02-22T21:11:54.024Z,92.28
2023-02-22T21:14:58.084Z,92.45
2023-02-22T21:18:02.202Z,92.27
2023-02-22T21:21:10.089Z,92.37
2023-02-22T21:24:13.700Z,92.36
2023-02-22T21:27:17.045Z,92.36
2023-02-22T21:30:21.378Z,92.66
2023-02-22T21:33:24.036Z,92.49
2023-02-22T21:36:27.797Z,92.62
2023-02-22T21:39:30.476Z,92.75
2023-02-22T21:42:33.287Z,92.69
2023-02-22T21:45:37.499Z,92.62
2023-02-22T21:48:44.873Z,92.89
2023-02-22T21:51:47.555Z,92.53
2023-02-22T21:54:50.259Z,92.61
2023-02-22T21:57:53.027Z,92.76
2023-02-22T22:00:59.434Z,93.08
2023-02-22T22:04:05.103Z,93.30
2023-02-22T22:07:08.106Z,93.48
2023-02-22T22:10:17.014Z,93.55
2023-02-22T22:13:19.968Z,93.47
2023-02-22T22:16:26.384Z,93.56
2023-02-22T22:19:31.714Z,93.80
2023-02-22T22:22:34.422Z,93.73
2023-02-22T22:25:38.145Z,93.57
2023-02-22T22:28:43.779Z,94.14
2023-02-22T22:31:48.698Z,93.95
2023-02-22T22:34:51.805Z,94.03
2023-02-22T22:37:54.562Z,94.00
2023-02-22T22:41:01.042Z,94.14
2023-02-22T22:44:06.159Z,94.05
2023-02-22T22:47:12.207Z,94.15
2023-02-22T22:50:15.635Z,94.65
2023-02-22T22:53:18.725Z,95.14
2023-02-22T22:56:26.789Z,95.43
2023-02-22T22:59:29.548Z,95.19
2023-02-22T23:02:33.672Z,95.54
2023-02-22T23:05:38.238Z,95.25
2023-02-22T23:08:43.933Z,95.06
2023-02-22T23:11:50.716Z,94.26
2023-02-22T23:14:55.212Z,94.27
2023-02-22T23:17:59.454Z,94.68
2023-02-22T23:21:05.504Z,94.41
2023-02-22T23:24:08.495Z,94.34
2023-02-22T23:27:12.288Z,94.37
2023-02-22T23:30:18.622Z,94.05
2023-02-22T23:33:22.998Z,94.00
2023-02-22T23:36:26.679Z,93.90
2023-02-22T23:39:29.444Z,93.57
2023-02-22T23:42:32.113Z,93.88
2023-02-22T23:45:38.565Z,93.70
2023-02-22T23:48:46.689Z,93.98
2023-02-22T23:51:49.801Z,93.83
2023-02-22T23:54:53.946Z,94.36
2023-02-22T23:57:59.415Z,94.39
